sensor_id;sensor_type;location;lat;lon;timestamp;P1;durP1;ratioP1;P2;durP2;ratioP2
3698;SDS011;1865;50.918;7.092;2023-06-14T00:01:19;13.10;;;5.40;;
3698;SDS011;1865;50.918;7.092;2023-06-14T00:03:46;21.03;;;6.07;;
3698;SDS011;1865;50.918;7.092;2023-06-14T00:06:13;11.70;;;5.43;;
3698;SDS011;1865;50.918;7.092;2023-06-14T00:08:39;12.83;;;5.10;;
3698;SDS011;1865;50.918;7.092;2023-06-14T00:11:05;13.60;;;4.43;;
3698;SDS011;1865;50.918;7.092;2023-06-14T00:13:31;13.03;;;5.53;;
3698;SDS011;1865;50.918;7.092;2023-06-14T00:15:57;11.97;;;4.97;;
3698;SDS011;1865;50.918;7.092;2023-06-14T00:18:23;15.23;;;5.77;;
3698;SDS011;1865;50.918;7.092;2023-06-14T00:20:54;14.60;;;6.03;;
3698;SDS011;1865;50.918;7.092;2023-06-14T00:23:20;14.03;;;5.53;;
3698;SDS011;1865;50.918;7.092;2023-06-14T00:25:46;14.60;;;5.33;;
3698;SDS011;1865;50.918;7.092;2023-06-14T00:28:11;16.80;;;5.07;;
3698;SDS011;1865;50.918;7.092;2023-06-14T00:30:37;13.00;;;5.00;;
3698;SDS011;1865;50.918;7.092;2023-06-14T00:33:03;14.90;;;5.83;;
3698;SDS011;1865;50.918;7.092;2023-06-14T00:35:29;12.80;;;5.17;;
3698;SDS011;1865;50.918;7.092;2023-06-14T00:37:54;16.10;;;5.23;;
3698;SDS011;1865;50.918;7.092;2023-06-14T00:40:20;12.80;;;5.00;;
3698;SDS011;1865;50.918;7.092;2023-06-14T00:42:46;12.10;;;5.40;;
3698;SDS011;1865;50.918;7.092;2023-06-14T00:45:12;14.40;;;5.93;;
3698;SDS011;1865;50.918;7.092;2023-06-14T00:47:38;15.53;;;5.77;;
3698;SDS011;1865;50.918;7.092;2023-06-14T00:50:06;13.27;;;5.80;;
3698;SDS011;1865;50.918;7.092;2023-06-14T00:52:32;14.07;;;4.97;;
3698;SDS011;1865;50.918;7.092;2023-06-14T00:54:59;12.30;;;5.57;;
3698;SDS011;1865;50.918;7.092;2023-06-14T00:57:25;18.97;;;6.37;;
3698;SDS011;1865;50.918;7.092;2023-06-14T00:59:51;12.90;;;5.53;;
3698;SDS011;1865;50.918;7.092;2023-06-14T01:02:17;12.80;;;5.37;;
3698;SDS011;1865;50.918;7.092;2023-06-14T01:04:43;13.63;;;5.60;;
3698;SDS011;1865;50.918;7.092;2023-06-14T01:09:57;18.10;;;5.80;;
3698;SDS011;1865;50.918;7.092;2023-06-14T01:15:33;12.33;;;5.73;;
3698;SDS011;1865;50.918;7.092;2023-06-14T01:18:00;13.10;;;6.20;;
3698;SDS011;1865;50.918;7.092;2023-06-14T01:20:29;15.80;;;6.03;;
3698;SDS011;1865;50.918;7.092;2023-06-14T01:22:57;12.97;;;5.40;;
3698;SDS011;1865;50.918;7.092;2023-06-14T01:25:23;15.10;;;6.30;;
3698;SDS011;1865;50.918;7.092;2023-06-14T01:27:49;12.27;;;5.53;;
3698;SDS011;1865;50.918;7.092;2023-06-14T01:30:27;13.30;;;5.80;;
3698;SDS011;1865;50.918;7.092;2023-06-14T01:32:54;23.53;;;7.00;;
3698;SDS011;1865;50.918;7.092;2023-06-14T01:35:20;12.60;;;6.00;;
3698;SDS011;1865;50.918;7.092;2023-06-14T01:37:47;12.60;;;6.20;;
3698;SDS011;1865;50.918;7.092;2023-06-14T01:40:14;15.60;;;5.67;;
3698;SDS011;1865;50.918;7.092;2023-06-14T01:42:40;12.77;;;5.70;;
3698;SDS011;1865;50.918;7.092;2023-06-14T01:45:07;12.70;;;5.90;;
3698;SDS011;1865;50.918;7.092;2023-06-14T01:47:35;15.37;;;5.80;;
3698;SDS011;1865;50.918;7.092;2023-06-14T01:50:01;12.00;;;5.33;;
3698;SDS011;1865;50.918;7.092;2023-06-14T01:52:28;14.30;;;6.27;;
3698;SDS011;1865;50.918;7.092;2023-06-14T01:54:53;19.80;;;5.90;;
3698;SDS011;1865;50.918;7.092;2023-06-14T01:57:19;21.93;;;5.70;;
3698;SDS011;1865;50.918;7.092;2023-06-14T01:59:45;13.57;;;5.80;;
3698;SDS011;1865;50.918;7.092;2023-06-14T02:02:13;17.10;;;6.67;;
3698;SDS011;1865;50.918;7.092;2023-06-14T02:04:40;15.17;;;6.23;;
3698;SDS011;1865;50.918;7.092;2023-06-14T02:07:05;14.30;;;5.60;;
3698;SDS011;1865;50.918;7.092;2023-06-14T02:09:31;12.87;;;5.33;;
3698;SDS011;1865;50.918;7.092;2023-06-14T02:11:56;13.20;;;5.70;;
3698;SDS011;1865;50.918;7.092;2023-06-14T02:14:23;13.53;;;6.00;;
3698;SDS011;1865;50.918;7.092;2023-06-14T02:16:49;12.50;;;5.67;;
3698;SDS011;1865;50.918;7.092;2023-06-14T02:19:15;15.27;;;6.93;;
3698;SDS011;1865;50.918;7.092;2023-06-14T02:21:41;14.57;;;6.37;;
3698;SDS011;1865;50.918;7.092;2023-06-14T02:24:07;12.60;;;5.33;;
3698;SDS011;1865;50.918;7.092;2023-06-14T02:26:33;12.10;;;5.50;;
3698;SDS011;1865;50.918;7.092;2023-06-14T02:28:59;14.83;;;6.63;;
3698;SDS011;1865;50.918;7.092;2023-06-14T02:31:24;16.00;;;6.77;;
3698;SDS011;1865;50.918;7.092;2023-06-14T02:33:50;17.10;;;6.03;;
3698;SDS011;1865;50.918;7.092;2023-06-14T02:36:16;16.50;;;6.30;;
3698;SDS011;1865;50.918;7.092;2023-06-14T02:38:41;18.20;;;5.93;;
3698;SDS011;1865;50.918;7.092;2023-06-14T02:41:07;14.37;;;6.90;;
3698;SDS011;1865;50.918;7.092;2023-06-14T02:43:32;14.60;;;5.80;;
3698;SDS011;1865;50.918;7.092;2023-06-14T02:45:58;14.10;;;5.87;;
3698;SDS011;1865;50.918;7.092;2023-06-14T02:48:24;12.60;;;6.23;;
3698;SDS011;1865;50.918;7.092;2023-06-14T02:50:49;16.13;;;6.80;;
3698;SDS011;1865;50.918;7.092;2023-06-14T02:53:15;15.63;;;7.30;;
3698;SDS011;1865;50.918;7.092;2023-06-14T02:55:40;15.90;;;6.40;;
3698;SDS011;1865;50.918;7.092;2023-06-14T02:58:06;17.87;;;5.20;;
3698;SDS011;1865;50.918;7.092;2023-06-14T03:00:32;16.60;;;6.07;;
3698;SDS011;1865;50.918;7.092;2023-06-14T03:02:57;18.43;;;6.03;;
3698;SDS011;1865;50.918;7.092;2023-06-14T03:05:26;13.80;;;6.20;;
3698;SDS011;1865;50.918;7.092;2023-06-14T03:07:53;12.70;;;6.10;;
3698;SDS011;1865;50.918;7.092;2023-06-14T03:10:18;13.83;;;6.03;;
3698;SDS011;1865;50.918;7.092;2023-06-14T03:12:44;13.23;;;6.13;;
3698;SDS011;1865;50.918;7.092;2023-06-14T03:15:10;14.67;;;6.57;;
3698;SDS011;1865;50.918;7.092;2023-06-14T03:17:37;13.57;;;6.60;;
3698;SDS011;1865;50.918;7.092;2023-06-14T03:20:05;15.03;;;6.40;;
3698;SDS011;1865;50.918;7.092;2023-06-14T03:22:31;15.03;;;6.47;;
3698;SDS011;1865;50.918;7.092;2023-06-14T03:24:59;15.37;;;7.27;;
3698;SDS011;1865;50.918;7.092;2023-06-14T03:27:25;20.03;;;6.63;;
3698;SDS011;1865;50.918;7.092;2023-06-14T03:29:50;13.73;;;7.00;;
3698;SDS011;1865;50.918;7.092;2023-06-14T03:32:16;14.80;;;7.07;;
3698;SDS011;1865;50.918;7.092;2023-06-14T03:34:41;21.03;;;6.80;;
3698;SDS011;1865;50.918;7.092;2023-06-14T03:37:07;13.13;;;6.17;;
3698;SDS011;1865;50.918;7.092;2023-06-14T03:39:33;13.97;;;6.10;;
3698;SDS011;1865;50.918;7.092;2023-06-14T03:41:58;16.27;;;7.10;;
3698;SDS011;1865;50.918;7.092;2023-06-14T03:44:24;16.50;;;6.60;;
3698;SDS011;1865;50.918;7.092;2023-06-14T03:46:52;16.10;;;6.10;;
3698;SDS011;1865;50.918;7.092;2023-06-14T03:49:17;12.57;;;6.37;;
3698;SDS011;1865;50.918;7.092;2023-06-14T03:51:43;14.40;;;6.90;;
3698;SDS011;1865;50.918;7.092;2023-06-14T03:54:09;14.83;;;6.87;;
3698;SDS011;1865;50.918;7.092;2023-06-14T03:56:35;18.00;;;7.40;;
3698;SDS011;1865;50.918;7.092;2023-06-14T03:59:01;17.20;;;6.70;;
3698;SDS011;1865;50.918;7.092;2023-06-14T04:01:27;13.27;;;6.73;;
3698;SDS011;1865;50.918;7.092;2023-06-14T04:03:55;14.53;;;7.70;;
3698;SDS011;1865;50.918;7.092;2023-06-14T04:06:21;13.77;;;6.20;;
3698;SDS011;1865;50.918;7.092;2023-06-14T04:08:49;15.47;;;7.10;;
3698;SDS011;1865;50.918;7.092;2023-06-14T04:11:16;13.80;;;6.63;;
3698;SDS011;1865;50.918;7.092;2023-06-14T04:13:41;15.90;;;7.27;;
3698;SDS011;1865;50.918;7.092;2023-06-14T04:16:07;15.20;;;6.57;;
3698;SDS011;1865;50.918;7.092;2023-06-14T04:18:32;13.87;;;6.73;;
3698;SDS011;1865;50.918;7.092;2023-06-14T04:20:58;15.17;;;6.50;;
3698;SDS011;1865;50.918;7.092;2023-06-14T04:23:24;13.57;;;6.63;;
3698;SDS011;1865;50.918;7.092;2023-06-14T04:25:49;14.50;;;6.80;;
3698;SDS011;1865;50.918;7.092;2023-06-14T04:28:15;13.30;;;6.53;;
3698;SDS011;1865;50.918;7.092;2023-06-14T04:30:42;12.90;;;6.37;;
3698;SDS011;1865;50.918;7.092;2023-06-14T04:33:08;15.33;;;7.10;;
3698;SDS011;1865;50.918;7.092;2023-06-14T04:35:35;14.43;;;6.10;;
3698;SDS011;1865;50.918;7.092;2023-06-14T04:38:02;14.77;;;6.80;;
3698;SDS011;1865;50.918;7.092;2023-06-14T04:40:30;13.80;;;6.90;;
3698;SDS011;1865;50.918;7.092;2023-06-14T04:42:56;11.97;;;6.03;;
3698;SDS011;1865;50.918;7.092;2023-06-14T04:45:22;20.70;;;6.80;;
3698;SDS011;1865;50.918;7.092;2023-06-14T04:47:48;19.13;;;6.80;;
3698;SDS011;1865;50.918;7.092;2023-06-14T04:50:15;13.60;;;7.17;;
3698;SDS011;1865;50.918;7.092;2023-06-14T04:52:41;15.20;;;7.33;;
3698;SDS011;1865;50.918;7.092;2023-06-14T04:55:07;15.97;;;7.17;;
3698;SDS011;1865;50.918;7.092;2023-06-14T04:57:33;12.70;;;6.50;;
3698;SDS011;1865;50.918;7.092;2023-06-14T04:59:59;16.10;;;6.77;;
3698;SDS011;1865;50.918;7.092;2023-06-14T05:02:26;15.67;;;6.80;;
3698;SDS011;1865;50.918;7.092;2023-06-14T05:04:52;17.67;;;6.50;;
3698;SDS011;1865;50.918;7.092;2023-06-14T05:07:18;15.23;;;7.63;;
3698;SDS011;1865;50.918;7.092;2023-06-14T05:09:44;15.70;;;6.57;;
3698;SDS011;1865;50.918;7.092;2023-06-14T05:12:10;13.33;;;5.80;;
3698;SDS011;1865;50.918;7.092;2023-06-14T05:14:35;16.27;;;5.67;;
3698;SDS011;1865;50.918;7.092;2023-06-14T05:17:01;18.10;;;5.83;;
3698;SDS011;1865;50.918;7.092;2023-06-14T05:19:30;18.23;;;6.10;;
3698;SDS011;1865;50.918;7.092;2023-06-14T05:21:56;14.93;;;5.60;;
3698;SDS011;1865;50.918;7.092;2023-06-14T05:24:21;16.10;;;5.80;;
3698;SDS011;1865;50.918;7.092;2023-06-14T05:26:47;12.20;;;5.50;;
3698;SDS011;1865;50.918;7.092;2023-06-14T05:29:13;12.83;;;5.10;;
3698;SDS011;1865;50.918;7.092;2023-06-14T05:31:39;13.63;;;4.10;;
3698;SDS011;1865;50.918;7.092;2023-06-14T05:34:05;10.47;;;4.30;;
3698;SDS011;1865;50.918;7.092;2023-06-14T05:36:30;17.10;;;5.10;;
3698;SDS011;1865;50.918;7.092;2023-06-14T05:38:56;16.83;;;5.00;;
3698;SDS011;1865;50.918;7.092;2023-06-14T05:41:24;11.70;;;4.73;;
3698;SDS011;1865;50.918;7.092;2023-06-14T05:43:53;12.57;;;4.30;;
3698;SDS011;1865;50.918;7.092;2023-06-14T05:46:19;13.27;;;4.70;;
3698;SDS011;1865;50.918;7.092;2023-06-14T05:48:47;12.73;;;4.47;;
3698;SDS011;1865;50.918;7.092;2023-06-14T05:51:13;11.30;;;4.53;;
3698;SDS011;1865;50.918;7.092;2023-06-14T05:53:39;13.03;;;3.63;;
3698;SDS011;1865;50.918;7.092;2023-06-14T05:56:05;13.93;;;4.30;;
3698;SDS011;1865;50.918;7.092;2023-06-14T05:58:30;12.37;;;4.37;;
3698;SDS011;1865;50.918;7.092;2023-06-14T06:00:56;15.13;;;4.80;;
3698;SDS011;1865;50.918;7.092;2023-06-14T06:03:22;13.63;;;4.20;;
3698;SDS011;1865;50.918;7.092;2023-06-14T06:05:48;20.40;;;3.90;;
3698;SDS011;1865;50.918;7.092;2023-06-14T06:08:14;12.23;;;4.13;;
3698;SDS011;1865;50.918;7.092;2023-06-14T06:10:41;11.23;;;3.77;;
3698;SDS011;1865;50.918;7.092;2023-06-14T06:13:07;13.10;;;3.23;;
3698;SDS011;1865;50.918;7.092;2023-06-14T06:15:32;16.27;;;3.83;;
3698;SDS011;1865;50.918;7.092;2023-06-14T06:17:58;13.20;;;3.80;;
3698;SDS011;1865;50.918;7.092;2023-06-14T06:20:24;11.57;;;3.57;;
3698;SDS011;1865;50.918;7.092;2023-06-14T06:22:57;11.27;;;4.00;;
3698;SDS011;1865;50.918;7.092;2023-06-14T06:25:23;10.90;;;3.30;;
3698;SDS011;1865;50.918;7.092;2023-06-14T06:27:50;13.70;;;3.73;;
3698;SDS011;1865;50.918;7.092;2023-06-14T06:30:17;12.63;;;3.97;;
3698;SDS011;1865;50.918;7.092;2023-06-14T06:32:42;13.57;;;3.83;;
3698;SDS011;1865;50.918;7.092;2023-06-14T06:35:08;11.13;;;3.80;;
3698;SDS011;1865;50.918;7.092;2023-06-14T06:37:35;12.50;;;3.70;;
3698;SDS011;1865;50.918;7.092;2023-06-14T06:40:01;12.07;;;3.63;;
3698;SDS011;1865;50.918;7.092;2023-06-14T06:42:28;9.77;;;3.20;;
3698;SDS011;1865;50.918;7.092;2023-06-14T06:44:54;13.97;;;3.97;;
3698;SDS011;1865;50.918;7.092;2023-06-14T06:47:20;12.90;;;4.17;;
3698;SDS011;1865;50.918;7.092;2023-06-14T06:49:45;13.90;;;3.20;;
3698;SDS011;1865;50.918;7.092;2023-06-14T06:52:11;12.90;;;3.50;;
3698;SDS011;1865;50.918;7.092;2023-06-14T06:54:36;10.33;;;3.53;;
3698;SDS011;1865;50.918;7.092;2023-06-14T06:57:02;9.53;;;3.07;;
3698;SDS011;1865;50.918;7.092;2023-06-14T06:59:27;21.43;;;3.57;;
3698;SDS011;1865;50.918;7.092;2023-06-14T07:01:53;10.57;;;3.13;;
3698;SDS011;1865;50.918;7.092;2023-06-14T07:04:18;11.70;;;3.37;;
3698;SDS011;1865;50.918;7.092;2023-06-14T07:06:45;20.10;;;3.90;;
3698;SDS011;1865;50.918;7.092;2023-06-14T07:09:12;16.50;;;3.57;;
3698;SDS011;1865;50.918;7.092;2023-06-14T07:11:39;10.50;;;3.17;;
3698;SDS011;1865;50.918;7.092;2023-06-14T07:14:05;10.07;;;3.00;;
3698;SDS011;1865;50.918;7.092;2023-06-14T07:16:31;11.00;;;3.23;;
3698;SDS011;1865;50.918;7.092;2023-06-14T07:18:56;10.80;;;3.20;;
3698;SDS011;1865;50.918;7.092;2023-06-14T07:21:22;9.97;;;2.70;;
3698;SDS011;1865;50.918;7.092;2023-06-14T07:23:47;14.73;;;2.97;;
3698;SDS011;1865;50.918;7.092;2023-06-14T07:26:13;11.17;;;2.97;;
3698;SDS011;1865;50.918;7.092;2023-06-14T07:28:39;9.17;;;2.83;;
3698;SDS011;1865;50.918;7.092;2023-06-14T07:31:04;11.93;;;2.90;;
3698;SDS011;1865;50.918;7.092;2023-06-14T07:33:30;9.30;;;2.37;;
3698;SDS011;1865;50.918;7.092;2023-06-14T07:35:55;9.57;;;2.50;;
3698;SDS011;1865;50.918;7.092;2023-06-14T07:38:21;14.37;;;2.67;;
3698;SDS011;1865;50.918;7.092;2023-06-14T07:40:46;12.23;;;2.23;;
3698;SDS011;1865;50.918;7.092;2023-06-14T07:43:12;8.50;;;2.50;;
3698;SDS011;1865;50.918;7.092;2023-06-14T07:45:37;9.13;;;2.40;;
3698;SDS011;1865;50.918;7.092;2023-06-14T07:48:03;12.00;;;2.17;;
3698;SDS011;1865;50.918;7.092;2023-06-14T07:50:29;10.23;;;1.60;;
3698;SDS011;1865;50.918;7.092;2023-06-14T07:52:55;11.07;;;2.20;;
3698;SDS011;1865;50.918;7.092;2023-06-14T07:55:21;11.03;;;1.93;;
3698;SDS011;1865;50.918;7.092;2023-06-14T07:57:46;9.47;;;1.93;;
3698;SDS011;1865;50.918;7.092;2023-06-14T08:00:12;9.07;;;1.70;;
3698;SDS011;1865;50.918;7.092;2023-06-14T08:02:41;8.30;;;1.60;;
3698;SDS011;1865;50.918;7.092;2023-06-14T08:05:08;10.00;;;1.60;;
3698;SDS011;1865;50.918;7.092;2023-06-14T08:07:36;10.47;;;2.00;;
3698;SDS011;1865;50.918;7.092;2023-06-14T08:10:02;10.40;;;1.70;;
3698;SDS011;1865;50.918;7.092;2023-06-14T08:12:28;11.17;;;1.77;;
3698;SDS011;1865;50.918;7.092;2023-06-14T08:14:53;7.63;;;1.50;;
3698;SDS011;1865;50.918;7.092;2023-06-14T08:17:19;16.17;;;2.40;;
3698;SDS011;1865;50.918;7.092;2023-06-14T08:19:45;8.13;;;1.60;;
3698;SDS011;1865;50.918;7.092;2023-06-14T08:22:10;9.83;;;1.87;;
3698;SDS011;1865;50.918;7.092;2023-06-14T08:24:37;8.40;;;1.70;;
3698;SDS011;1865;50.918;7.092;2023-06-14T08:27:02;8.77;;;2.10;;
3698;SDS011;1865;50.918;7.092;2023-06-14T08:29:28;8.70;;;2.20;;
3698;SDS011;1865;50.918;7.092;2023-06-14T08:31:56;8.07;;;1.57;;
3698;SDS011;1865;50.918;7.092;2023-06-14T08:34:22;13.30;;;2.23;;
3698;SDS011;1865;50.918;7.092;2023-06-14T08:36:49;9.43;;;2.10;;
3698;SDS011;1865;50.918;7.092;2023-06-14T08:39:16;9.83;;;1.97;;
3698;SDS011;1865;50.918;7.092;2023-06-14T08:41:42;9.10;;;2.20;;
3698;SDS011;1865;50.918;7.092;2023-06-14T08:44:10;11.23;;;2.13;;
3698;SDS011;1865;50.918;7.092;2023-06-14T08:46:36;9.93;;;1.90;;
3698;SDS011;1865;50.918;7.092;2023-06-14T08:49:02;9.13;;;2.20;;
3698;SDS011;1865;50.918;7.092;2023-06-14T08:51:30;10.17;;;2.00;;
3698;SDS011;1865;50.918;7.092;2023-06-14T08:54:01;10.30;;;1.57;;
3698;SDS011;1865;50.918;7.092;2023-06-14T08:56:29;8.53;;;1.70;;
3698;SDS011;1865;50.918;7.092;2023-06-14T08:58:56;8.70;;;1.67;;
3698;SDS011;1865;50.918;7.092;2023-06-14T09:01:25;9.47;;;1.83;;
3698;SDS011;1865;50.918;7.092;2023-06-14T09:03:52;7.67;;;1.77;;
3698;SDS011;1865;50.918;7.092;2023-06-14T09:06:19;8.50;;;1.80;;
3698;SDS011;1865;50.918;7.092;2023-06-14T09:08:48;10.57;;;1.90;;
3698;SDS011;1865;50.918;7.092;2023-06-14T09:11:14;10.27;;;2.90;;
3698;SDS011;1865;50.918;7.092;2023-06-14T09:13:41;9.57;;;2.03;;
3698;SDS011;1865;50.918;7.092;2023-06-14T09:16:07;9.23;;;2.40;;
3698;SDS011;1865;50.918;7.092;2023-06-14T09:18:43;12.40;;;1.90;;
3698;SDS011;1865;50.918;7.092;2023-06-14T09:21:12;8.50;;;1.77;;
3698;SDS011;1865;50.918;7.092;2023-06-14T09:26:12;10.33;;;1.90;;
3698;SDS011;1865;50.918;7.092;2023-06-14T09:28:42;12.93;;;2.20;;
3698;SDS011;1865;50.918;7.092;2023-06-14T09:31:10;10.10;;;1.80;;
3698;SDS011;1865;50.918;7.092;2023-06-14T09:33:36;9.20;;;1.90;;
3698;SDS011;1865;50.918;7.092;2023-06-14T09:36:01;11.20;;;2.10;;
3698;SDS011;1865;50.918;7.092;2023-06-14T09:38:28;9.00;;;1.83;;
3698;SDS011;1865;50.918;7.092;2023-06-14T09:40:55;12.93;;;2.50;;
3698;SDS011;1865;50.918;7.092;2023-06-14T09:43:22;10.27;;;2.03;;
3698;SDS011;1865;50.918;7.092;2023-06-14T09:45:48;13.60;;;1.90;;
3698;SDS011;1865;50.918;7.092;2023-06-14T09:48:15;20.23;;;2.17;;
3698;SDS011;1865;50.918;7.092;2023-06-14T09:50:44;8.67;;;1.80;;
3698;SDS011;1865;50.918;7.092;2023-06-14T09:53:11;13.53;;;1.87;;
3698;SDS011;1865;50.918;7.092;2023-06-14T09:55:37;11.87;;;2.00;;
3698;SDS011;1865;50.918;7.092;2023-06-14T09:58:05;9.83;;;1.80;;
3698;SDS011;1865;50.918;7.092;2023-06-14T10:00:32;8.53;;;1.63;;
3698;SDS011;1865;50.918;7.092;2023-06-14T10:03:06;10.93;;;1.93;;
3698;SDS011;1865;50.918;7.092;2023-06-14T10:05:51;10.20;;;1.73;;
3698;SDS011;1865;50.918;7.092;2023-06-14T10:08:19;11.13;;;1.63;;
3698;SDS011;1865;50.918;7.092;2023-06-14T10:10:47;12.50;;;1.90;;
3698;SDS011;1865;50.918;7.092;2023-06-14T10:13:13;8.93;;;2.13;;
3698;SDS011;1865;50.918;7.092;2023-06-14T10:15:52;10.70;;;1.83;;
3698;SDS011;1865;50.918;7.092;2023-06-14T10:21:43;10.90;;;2.00;;
3698;SDS011;1865;50.918;7.092;2023-06-14T10:24:20;9.30;;;1.70;;
3698;SDS011;1865;50.918;7.092;2023-06-14T10:26:56;13.37;;;1.50;;
3698;SDS011;1865;50.918;7.092;2023-06-14T10:29:23;10.40;;;1.57;;
3698;SDS011;1865;50.918;7.092;2023-06-14T10:31:49;10.70;;;1.83;;
3698;SDS011;1865;50.918;7.092;2023-06-14T10:34:25;9.23;;;1.90;;
3698;SDS011;1865;50.918;7.092;2023-06-14T10:37:04;8.10;;;1.70;;
3698;SDS011;1865;50.918;7.092;2023-06-14T10:39:31;11.07;;;2.20;;
3698;SDS011;1865;50.918;7.092;2023-06-14T10:41:58;8.33;;;1.80;;
3698;SDS011;1865;50.918;7.092;2023-06-14T10:44:30;9.57;;;1.90;;
3698;SDS011;1865;50.918;7.092;2023-06-14T10:47:06;9.37;;;2.13;;
3698;SDS011;1865;50.918;7.092;2023-06-14T10:49:45;9.70;;;1.93;;
3698;SDS011;1865;50.918;7.092;2023-06-14T10:52:16;11.70;;;1.90;;
3698;SDS011;1865;50.918;7.092;2023-06-14T10:57:34;10.40;;;2.33;;
3698;SDS011;1865;50.918;7.092;2023-06-14T11:00:02;9.00;;;1.60;;
3698;SDS011;1865;50.918;7.092;2023-06-14T11:05:32;14.23;;;2.13;;
3698;SDS011;1865;50.918;7.092;2023-06-14T11:10:44;11.03;;;1.47;;
3698;SDS011;1865;50.918;7.092;2023-06-14T11:13:12;9.20;;;2.30;;
3698;SDS011;1865;50.918;7.092;2023-06-14T11:15:43;8.80;;;1.40;;
3698;SDS011;1865;50.918;7.092;2023-06-14T11:18:10;8.70;;;1.50;;
3698;SDS011;1865;50.918;7.092;2023-06-14T11:20:39;9.40;;;1.53;;
3698;SDS011;1865;50.918;7.092;2023-06-14T11:23:05;15.53;;;1.60;;
3698;SDS011;1865;50.918;7.092;2023-06-14T11:25:30;10.53;;;1.67;;
3698;SDS011;1865;50.918;7.092;2023-06-14T11:27:56;8.40;;;1.93;;
3698;SDS011;1865;50.918;7.092;2023-06-14T11:30:23;8.00;;;1.70;;
3698;SDS011;1865;50.918;7.092;2023-06-14T11:32:50;7.60;;;1.50;;
3698;SDS011;1865;50.918;7.092;2023-06-14T11:35:18;7.97;;;1.60;;
3698;SDS011;1865;50.918;7.092;2023-06-14T11:37:44;10.90;;;1.60;;
3698;SDS011;1865;50.918;7.092;2023-06-14T11:40:10;11.30;;;2.60;;
3698;SDS011;1865;50.918;7.092;2023-06-14T11:42:37;9.07;;;1.80;;
3698;SDS011;1865;50.918;7.092;2023-06-14T11:45:07;8.13;;;1.57;;
3698;SDS011;1865;50.918;7.092;2023-06-14T11:47:34;10.53;;;2.07;;
3698;SDS011;1865;50.918;7.092;2023-06-14T11:50:03;11.13;;;1.77;;
3698;SDS011;1865;50.918;7.092;2023-06-14T11:52:31;7.90;;;1.50;;
3698;SDS011;1865;50.918;7.092;2023-06-14T11:54:57;8.47;;;1.77;;
3698;SDS011;1865;50.918;7.092;2023-06-14T11:57:24;10.00;;;1.80;;
3698;SDS011;1865;50.918;7.092;2023-06-14T11:59:50;8.40;;;1.60;;
3698;SDS011;1865;50.918;7.092;2023-06-14T12:02:16;8.37;;;1.60;;
3698;SDS011;1865;50.918;7.092;2023-06-14T12:04:43;15.03;;;1.87;;
3698;SDS011;1865;50.918;7.092;2023-06-14T12:07:15;12.50;;;1.37;;
3698;SDS011;1865;50.918;7.092;2023-06-14T12:09:46;7.87;;;1.50;;
3698;SDS011;1865;50.918;7.092;2023-06-14T12:12:28;8.73;;;1.53;;
3698;SDS011;1865;50.918;7.092;2023-06-14T12:14:56;7.30;;;1.20;;
3698;SDS011;1865;50.918;7.092;2023-06-14T12:17:22;9.50;;;1.50;;
3698;SDS011;1865;50.918;7.092;2023-06-14T12:19:48;11.37;;;1.70;;
3698;SDS011;1865;50.918;7.092;2023-06-14T12:22:15;11.07;;;1.57;;
3698;SDS011;1865;50.918;7.092;2023-06-14T12:24:44;10.30;;;1.50;;
3698;SDS011;1865;50.918;7.092;2023-06-14T12:27:10;7.93;;;1.30;;
3698;SDS011;1865;50.918;7.092;2023-06-14T12:29:40;10.90;;;1.20;;
3698;SDS011;1865;50.918;7.092;2023-06-14T12:32:08;10.63;;;1.20;;
3698;SDS011;1865;50.918;7.092;2023-06-14T12:34:34;9.63;;;1.17;;
3698;SDS011;1865;50.918;7.092;2023-06-14T12:37:00;8.50;;;1.37;;
3698;SDS011;1865;50.918;7.092;2023-06-14T12:39:26;7.27;;;1.17;;
3698;SDS011;1865;50.918;7.092;2023-06-14T12:41:52;7.23;;;1.00;;
3698;SDS011;1865;50.918;7.092;2023-06-14T12:44:19;7.97;;;1.37;;
3698;SDS011;1865;50.918;7.092;2023-06-14T12:46:44;8.80;;;1.20;;
3698;SDS011;1865;50.918;7.092;2023-06-14T12:49:11;8.03;;;1.10;;
3698;SDS011;1865;50.918;7.092;2023-06-14T12:51:37;8.17;;;1.40;;
3698;SDS011;1865;50.918;7.092;2023-06-14T12:54:05;10.03;;;1.50;;
3698;SDS011;1865;50.918;7.092;2023-06-14T12:56:31;10.47;;;1.87;;
3698;SDS011;1865;50.918;7.092;2023-06-14T12:58:57;11.23;;;1.47;;
3698;SDS011;1865;50.918;7.092;2023-06-14T13:01:23;11.33;;;1.90;;
3698;SDS011;1865;50.918;7.092;2023-06-14T13:03:49;8.97;;;1.60;;
3698;SDS011;1865;50.918;7.092;2023-06-14T13:06:16;8.00;;;1.40;;
3698;SDS011;1865;50.918;7.092;2023-06-14T13:08:42;8.63;;;1.57;;
3698;SDS011;1865;50.918;7.092;2023-06-14T13:11:08;12.00;;;1.77;;
3698;SDS011;1865;50.918;7.092;2023-06-14T13:13:33;8.37;;;1.50;;
3698;SDS011;1865;50.918;7.092;2023-06-14T13:15:59;9.00;;;1.50;;
3698;SDS011;1865;50.918;7.092;2023-06-14T13:18:25;7.10;;;1.10;;
3698;SDS011;1865;50.918;7.092;2023-06-14T13:20:51;9.43;;;1.40;;
3698;SDS011;1865;50.918;7.092;2023-06-14T13:23:16;9.50;;;1.70;;
3698;SDS011;1865;50.918;7.092;2023-06-14T13:25:42;8.40;;;1.50;;
3698;SDS011;1865;50.918;7.092;2023-06-14T13:28:08;11.10;;;1.50;;
3698;SDS011;1865;50.918;7.092;2023-06-14T13:30:34;9.53;;;1.57;;
3698;SDS011;1865;50.918;7.092;2023-06-14T13:32:59;6.93;;;1.00;;
3698;SDS011;1865;50.918;7.092;2023-06-14T13:35:25;8.20;;;1.73;;
3698;SDS011;1865;50.918;7.092;2023-06-14T13:37:51;10.17;;;1.30;;
3698;SDS011;1865;50.918;7.092;2023-06-14T13:40:17;7.30;;;1.00;;
3698;SDS011;1865;50.918;7.092;2023-06-14T13:42:43;7.90;;;1.07;;
3698;SDS011;1865;50.918;7.092;2023-06-14T13:45:09;9.23;;;1.20;;
3698;SDS011;1865;50.918;7.092;2023-06-14T13:47:36;6.80;;;0.93;;
3698;SDS011;1865;50.918;7.092;2023-06-14T13:50:03;6.80;;;1.00;;
3698;SDS011;1865;50.918;7.092;2023-06-14T13:52:29;13.33;;;1.20;;
3698;SDS011;1865;50.918;7.092;2023-06-14T13:54:55;7.80;;;1.10;;
3698;SDS011;1865;50.918;7.092;2023-06-14T13:57:20;6.57;;;1.13;;
3698;SDS011;1865;50.918;7.092;2023-06-14T13:59:46;16.60;;;1.17;;
3698;SDS011;1865;50.918;7.092;2023-06-14T14:02:12;7.70;;;1.10;;
3698;SDS011;1865;50.918;7.092;2023-06-14T14:04:38;5.80;;;0.75;;
3698;SDS011;1865;50.918;7.092;2023-06-14T14:07:04;7.13;;;1.30;;
3698;SDS011;1865;50.918;7.092;2023-06-14T14:09:31;8.77;;;1.02;;
3698;SDS011;1865;50.918;7.092;2023-06-14T14:12:00;9.13;;;1.05;;
3698;SDS011;1865;50.918;7.092;2023-06-14T14:14:27;8.30;;;1.10;;
3698;SDS011;1865;50.918;7.092;2023-06-14T14:16:53;6.93;;;0.90;;
3698;SDS011;1865;50.918;7.092;2023-06-14T14:19:19;11.57;;;1.10;;
3698;SDS011;1865;50.918;7.092;2023-06-14T14:21:46;6.40;;;1.20;;
3698;SDS011;1865;50.918;7.092;2023-06-14T14:24:12;8.63;;;1.10;;
3698;SDS011;1865;50.918;7.092;2023-06-14T14:26:38;6.50;;;1.20;;
3698;SDS011;1865;50.918;7.092;2023-06-14T14:29:04;7.43;;;1.33;;
3698;SDS011;1865;50.918;7.092;2023-06-14T14:31:29;7.20;;;1.10;;
3698;SDS011;1865;50.918;7.092;2023-06-14T14:33:55;12.37;;;1.47;;
3698;SDS011;1865;50.918;7.092;2023-06-14T14:36:21;12.80;;;1.70;;
3698;SDS011;1865;50.918;7.092;2023-06-14T14:38:46;8.40;;;1.33;;
3698;SDS011;1865;50.918;7.092;2023-06-14T14:41:12;9.40;;;1.77;;
3698;SDS011;1865;50.918;7.092;2023-06-14T14:43:38;9.03;;;1.50;;
3698;SDS011;1865;50.918;7.092;2023-06-14T14:46:04;11.70;;;1.73;;
3698;SDS011;1865;50.918;7.092;2023-06-14T14:48:29;8.03;;;1.73;;
3698;SDS011;1865;50.918;7.092;2023-06-14T14:50:55;9.37;;;1.83;;
3698;SDS011;1865;50.918;7.092;2023-06-14T14:53:21;8.77;;;1.90;;
3698;SDS011;1865;50.918;7.092;2023-06-14T14:55:46;9.17;;;1.40;;
3698;SDS011;1865;50.918;7.092;2023-06-14T14:58:12;7.77;;;1.90;;
3698;SDS011;1865;50.918;7.092;2023-06-14T15:00:38;8.00;;;1.77;;
3698;SDS011;1865;50.918;7.092;2023-06-14T15:03:03;8.33;;;1.60;;
3698;SDS011;1865;50.918;7.092;2023-06-14T15:05:29;7.70;;;1.80;;
3698;SDS011;1865;50.918;7.092;2023-06-14T15:07:54;7.53;;;1.60;;
3698;SDS011;1865;50.918;7.092;2023-06-14T15:10:20;8.57;;;1.87;;
3698;SDS011;1865;50.918;7.092;2023-06-14T15:12:46;9.43;;;1.97;;
3698;SDS011;1865;50.918;7.092;2023-06-14T15:15:11;7.20;;;1.67;;
3698;SDS011;1865;50.918;7.092;2023-06-14T15:17:37;12.10;;;2.20;;
3698;SDS011;1865;50.918;7.092;2023-06-14T15:20:02;7.50;;;1.63;;
3698;SDS011;1865;50.918;7.092;2023-06-14T15:22:29;7.60;;;1.60;;